createdAt,value
2023-01-12T00:25:57.193Z,70.35
2023-01-12T00:28:24.337Z,68.81
2023-01-12T00:30:51.504Z,68.22
2023-01-12T00:33:20.389Z,67.77
2023-01-12T00:35:47.834Z,67.36
2023-01-12T00:38:14.883Z,66.95
2023-01-12T00:40:41.938Z,66.42
2023-01-12T00:43:27.826Z,66.38
2023-01-12T00:45:55.053Z,66.47
2023-01-12T00:48:23.253Z,66.44
2023-01-12T00:50:50.405Z,66.41
2023-01-12T00:53:17.455Z,66.18
2023-01-12T00:55:46.350Z,66.40
2023-01-12T00:58:13.495Z,66.25
2023-01-12T01:00:40.647Z,66.57
2023-01-12T01:03:07.803Z,66.18
2023-01-12T01:05:34.955Z,66.35
2023-01-12T01:08:04.045Z,66.27
2023-01-12T01:10:31.198Z,66.14
2023-01-12T01:12:58.349Z,66.55
2023-01-12T01:15:25.403Z,66.53
2023-01-12T01:17:52.550Z,66.46
2023-01-12T01:20:19.706Z,66.66
2023-01-12T01:22:46.753Z,66.72
2023-01-12T01:25:13.905Z,66.49
2023-01-12T01:27:41.057Z,66.13
2023-01-12T01:30:09.234Z,66.53
2023-01-12T01:32:36.340Z,66.22
2023-01-12T01:35:03.457Z,66.00
2023-01-12T01:37:31.203Z,66.23
2023-01-12T01:39:58.350Z,66.09
2023-01-12T01:42:28.521Z,66.11
2023-01-12T01:44:57.575Z,66.45
2023-01-12T01:47:50.224Z,66.33
2023-01-12T01:50:24.641Z,66.40
2023-01-12T01:53:06.234Z,66.61
2023-01-12T01:55:36.761Z,66.70
2023-01-12T01:58:09.445Z,67.03
2023-01-12T02:00:37.925Z,66.80
2023-01-12T02:03:05.315Z,66.43
2023-01-12T02:05:32.534Z,66.58
2023-01-12T06:48:12.242Z,84.71
2023-01-12T06:50:39.395Z,82.63
2023-01-12T06:53:07.359Z,82.73
2023-01-12T06:55:35.025Z,82.20
2023-01-12T06:58:03.994Z,81.86
2023-01-12T07:00:31.687Z,81.67
2023-01-12T07:02:59.043Z,81.01
2023-01-12T07:05:26.192Z,80.70
2023-01-12T07:07:58.962Z,80.28
2023-01-12T07:10:26.685Z,80.20
2023-01-12T07:12:54.102Z,80.17
2023-01-12T07:15:21.244Z,80.04
2023-01-12T07:17:48.406Z,79.61
2023-01-12T07:20:16.153Z,79.84
2023-01-12T07:22:43.519Z,79.99
2023-01-12T07:25:10.666Z,79.87
2023-01-12T07:27:37.816Z,79.85
2023-01-12T07:30:05.579Z,79.59
2023-01-12T07:32:32.937Z,79.63
2023-01-12T07:35:00.089Z,79.34
2023-01-12T07:37:27.243Z,79.27
2023-01-12T07:39:54.393Z,79.19
2023-01-12T07:42:24.329Z,79.20
2023-01-12T07:44:52.385Z,79.10
2023-01-12T07:47:19.563Z,79.03
2023-01-12T07:49:46.996Z,78.92
2023-01-12T07:52:14.650Z,78.51
2023-01-12T07:54:41.804Z,78.38
2023-01-12T07:57:12.644Z,78.53
2023-01-12T07:59:39.804Z,78.49
2023-01-12T08:02:07.294Z,78.28
2023-01-12T08:04:34.505Z,78.32
2023-01-12T08:07:01.759Z,78.32
2023-01-12T08:09:28.908Z,78.08
2023-01-12T08:11:56.060Z,77.85
2023-01-12T08:14:33.647Z,78.00
2023-01-12T08:17:02.151Z,77.88
2023-01-12T08:19:39.436Z,77.55
2023-01-12T08:22:10.370Z,77.37
2023-01-12T08:24:46.326Z,77.01
2023-01-12T08:27:13.476Z,76.96
2023-01-12T08:29:45.706Z,76.97
2023-01-12T08:32:13.558Z,76.48
2023-01-12T08:34:41.742Z,76.66
2023-01-12T08:37:10.074Z,76.70
2023-01-12T08:39:37.338Z,76.58
2023-01-12T08:42:04.681Z,76.15
2023-01-12T08:44:34.704Z,76.04
2023-01-12T08:47:02.159Z,75.78
2023-01-12T08:49:29.945Z,75.50
2023-01-12T08:51:57.283Z,75.57
2023-01-12T08:54:24.871Z,75.61
2023-01-12T08:56:54.376Z,75.68
2023-01-12T08:59:21.623Z,75.43
2023-01-12T09:01:49.169Z,75.34
2023-01-12T09:04:16.427Z,75.34
2023-01-12T09:06:44.793Z,75.22
2023-01-12T09:09:13.791Z,74.79
2023-01-12T09:11:41.901Z,74.61
2023-01-12T09:14:09.551Z,74.72
2023-01-12T09:16:36.847Z,74.85
2023-01-12T09:19:04.155Z,74.83
2023-01-12T09:21:31.823Z,74.17
2023-01-12T09:23:59.073Z,74.20
2023-01-12T09:26:31.831Z,74.42
2023-01-12T09:28:59.922Z,74.60
2023-01-12T09:31:27.657Z,74.72
2023-01-12T09:33:54.956Z,74.59
2023-01-12T09:36:24.363Z,74.52
2023-01-12T09:38:51.506Z,74.42
2023-01-12T09:42:05.465Z,74.35
2023-01-12T09:44:52.795Z,74.35
2023-01-12T09:47:44.933Z,74.32
2023-01-12T09:50:18.125Z,74.25
2023-01-12T09:52:57.463Z,74.10
2023-01-12T09:55:26.774Z,74.16
2023-01-12T09:58:19.007Z,74.12
2023-01-12T10:00:51.523Z,73.79
2023-01-12T10:03:31.989Z,73.86
2023-01-12T16:14:22.992Z,84.28
2023-01-12T16:16:50.257Z,82.67
2023-01-12T16:19:21.505Z,83.14
2023-01-12T16:21:48.638Z,82.99
2023-01-12T16:24:15.798Z,82.63
2023-01-12T16:26:43.968Z,82.12
2023-01-12T16:29:11.226Z,81.68
2023-01-12T16:31:39.420Z,81.56
2023-01-12T16:34:06.858Z,81.38
2023-01-12T16:36:35.025Z,81.00
2023-01-12T16:39:02.176Z,80.77
2023-01-12T16:41:29.431Z,80.34
2023-01-12T16:43:58.426Z,80.37
2023-01-12T16:46:25.572Z,80.43
2023-01-12T16:48:55.488Z,80.62
2023-01-12T16:51:22.748Z,80.70
2023-01-12T16:53:51.842Z,80.42
2023-01-12T16:56:18.991Z,80.48
2023-01-12T16:58:48.905Z,80.07
2023-01-12T17:01:18.325Z,80.05
2023-01-12T17:03:45.774Z,80.05
2023-01-12T17:06:16.922Z,79.93
2023-01-12T17:08:44.174Z,79.76
2023-01-12T17:11:12.921Z,79.72
2023-01-12T17:13:40.218Z,79.65
2023-01-12T17:16:10.766Z,79.77
2023-01-12T17:18:38.924Z,79.79
2023-01-12T17:21:12.255Z,79.97
2023-01-12T17:23:40.581Z,79.96
2023-01-12T17:26:09.602Z,79.65
2023-01-12T17:28:36.861Z,79.59
2023-01-12T17:31:12.579Z,79.69
2023-01-12T17:33:39.853Z,79.74
2023-01-12T17:36:08.638Z,79.70
2023-01-12T17:38:36.518Z,79.64
2023-01-12T17:41:08.586Z,79.59
2023-01-12T17:43:37.464Z,79.69
2023-01-12T17:46:07.922Z,79.53
2023-01-12T17:48:35.064Z,79.36
2023-01-12T17:51:06.392Z,79.22
2023-01-12T17:53:33.543Z,79.32
2023-01-12T17:56:04.014Z,79.30
2023-01-12T17:58:31.123Z,79.00
2023-01-12T23:02:26.288Z,85.35
2023-01-12T23:04:53.540Z,83.47
2023-01-12T23:07:20.793Z,83.90
2023-01-12T23:09:47.944Z,83.23
2023-01-12T23:12:15.093Z,83.18
2023-01-12T23:14:42.249Z,83.60
2023-01-12T23:17:09.396Z,83.60
2023-01-12T23:19:36.566Z,83.31
2023-01-12T23:22:03.903Z,83.29
2023-01-12T23:24:31.052Z,82.92
2023-01-12T23:26:58.308Z,82.62
2023-01-12T23:29:25.457Z,82.54
2023-01-12T23:31:52.616Z,82.30
2023-01-12T23:34:19.867Z,82.10
2023-01-12T23:36:47.013Z,82.00
2023-01-12T23:39:14.170Z,81.48
2023-01-12T23:41:41.322Z,81.24
2023-01-12T23:44:09.796Z,81.23
2023-01-12T23:46:38.251Z,81.33
2023-01-12T23:49:05.644Z,81.55
2023-01-12T23:51:33.002Z,81.55
2023-01-12T23:54:00.842Z,81.46
2023-01-12T23:56:29.304Z,81.47
2023-01-12T23:58:56.600Z,81.57
